sensor_id;sensor_type;location;lat;lon;timestamp;P1;durP1;ratioP1;P2;durP2;ratioP2
12631;SDS011;6381;45.748;12.106;2022-12-07T00:01:49;9.53;;;8.63;;
12631;SDS011;6381;45.748;12.106;2022-12-07T00:04:18;8.87;;;8.13;;
12631;SDS011;6381;45.748;12.106;2022-12-07T00:06:50;9.53;;;8.07;;
12631;SDS011;6381;45.748;12.106;2022-12-07T00:09:20;9.73;;;8.83;;
12631;SDS011;6381;45.748;12.106;2022-12-07T00:11:49;9.53;;;8.67;;
12631;SDS011;6381;45.748;12.106;2022-12-07T00:14:21;10.20;;;9.17;;
12631;SDS011;6381;45.748;12.106;2022-12-07T00:16:50;9.90;;;8.90;;
12631;SDS011;6381;45.748;12.106;2022-12-07T00:19:20;19.77;;;17.93;;
12631;SDS011;6381;45.748;12.106;2022-12-07T00:21:49;16.60;;;15.07;;
12631;SDS011;6381;45.748;12.106;2022-12-07T00:24:18;17.87;;;16.07;;
12631;SDS011;6381;45.748;12.106;2022-12-07T00:26:48;14.70;;;13.30;;
12631;SDS011;6381;45.748;12.106;2022-12-07T00:29:17;14.83;;;13.47;;
12631;SDS011;6381;45.748;12.106;2022-12-07T00:31:50;20.37;;;18.57;;
12631;SDS011;6381;45.748;12.106;2022-12-07T00:34:19;15.13;;;13.63;;
12631;SDS011;6381;45.748;12.106;2022-12-07T00:36:49;23.03;;;20.90;;
12631;SDS011;6381;45.748;12.106;2022-12-07T00:39:18;15.37;;;13.93;;
12631;SDS011;6381;45.748;12.106;2022-12-07T00:41:47;18.97;;;17.47;;
12631;SDS011;6381;45.748;12.106;2022-12-07T00:44:16;34.93;;;26.83;;
12631;SDS011;6381;45.748;12.106;2022-12-07T00:46:45;42.37;;;31.13;;
12631;SDS011;6381;45.748;12.106;2022-12-07T00:49:16;26.67;;;21.20;;
12631;SDS011;6381;45.748;12.106;2022-12-07T00:51:45;15.77;;;13.17;;
12631;SDS011;6381;45.748;12.106;2022-12-07T00:54:17;13.80;;;11.27;;
12631;SDS011;6381;45.748;12.106;2022-12-07T00:56:46;11.70;;;10.50;;
12631;SDS011;6381;45.748;12.106;2022-12-07T00:59:15;11.90;;;9.60;;
12631;SDS011;6381;45.748;12.106;2022-12-07T01:01:44;17.23;;;14.57;;
12631;SDS011;6381;45.748;12.106;2022-12-07T01:04:13;11.80;;;10.60;;
12631;SDS011;6381;45.748;12.106;2022-12-07T01:06:44;10.83;;;9.67;;
12631;SDS011;6381;45.748;12.106;2022-12-07T01:09:13;9.00;;;8.10;;
12631;SDS011;6381;45.748;12.106;2022-12-07T01:11:42;8.63;;;7.73;;
12631;SDS011;6381;45.748;12.106;2022-12-07T01:14:11;9.33;;;8.33;;
12631;SDS011;6381;45.748;12.106;2022-12-07T01:16:40;8.90;;;8.00;;
12631;SDS011;6381;45.748;12.106;2022-12-07T01:19:09;8.60;;;7.80;;
12631;SDS011;6381;45.748;12.106;2022-12-07T01:21:40;9.23;;;7.67;;
12631;SDS011;6381;45.748;12.106;2022-12-07T01:24:09;8.43;;;7.63;;
12631;SDS011;6381;45.748;12.106;2022-12-07T01:26:39;8.43;;;7.63;;
12631;SDS011;6381;45.748;12.106;2022-12-07T01:29:08;8.13;;;7.33;;
12631;SDS011;6381;45.748;12.106;2022-12-07T01:31:38;8.20;;;7.50;;
12631;SDS011;6381;45.748;12.106;2022-12-07T01:34:07;7.63;;;6.93;;
12631;SDS011;6381;45.748;12.106;2022-12-07T01:36:36;7.83;;;7.07;;
12631;SDS011;6381;45.748;12.106;2022-12-07T01:39:08;7.43;;;6.73;;
12631;SDS011;6381;45.748;12.106;2022-12-07T01:41:39;7.50;;;6.20;;
12631;SDS011;6381;45.748;12.106;2022-12-07T01:44:12;7.40;;;6.70;;
12631;SDS011;6381;45.748;12.106;2022-12-07T01:46:43;6.67;;;6.03;;
12631;SDS011;6381;45.748;12.106;2022-12-07T01:49:16;7.30;;;6.53;;
12631;SDS011;6381;45.748;12.106;2022-12-07T01:51:48;6.90;;;6.30;;
12631;SDS011;6381;45.748;12.106;2022-12-07T01:54:21;6.47;;;5.77;;
12631;SDS011;6381;45.748;12.106;2022-12-07T01:56:51;6.47;;;5.80;;
12631;SDS011;6381;45.748;12.106;2022-12-07T01:59:23;6.23;;;5.40;;
12631;SDS011;6381;45.748;12.106;2022-12-07T02:01:54;6.23;;;5.67;;
12631;SDS011;6381;45.748;12.106;2022-12-07T02:04:24;6.10;;;5.60;;
12631;SDS011;6381;45.748;12.106;2022-12-07T02:06:53;6.07;;;5.57;;
12631;SDS011;6381;45.748;12.106;2022-12-07T02:09:25;6.20;;;5.70;;
12631;SDS011;6381;45.748;12.106;2022-12-07T02:11:54;6.20;;;5.40;;
12631;SDS011;6381;45.748;12.106;2022-12-07T02:14:24;6.13;;;5.63;;
12631;SDS011;6381;45.748;12.106;2022-12-07T02:16:57;6.50;;;5.80;;
12631;SDS011;6381;45.748;12.106;2022-12-07T02:19:51;6.73;;;6.13;;
12631;SDS011;6381;45.748;12.106;2022-12-07T02:22:49;6.27;;;5.67;;
12631;SDS011;6381;45.748;12.106;2022-12-07T02:25:49;6.10;;;5.60;;
12631;SDS011;6381;45.748;12.106;2022-12-07T02:28:31;6.73;;;6.03;;
12631;SDS011;6381;45.748;12.106;2022-12-07T02:31:05;6.77;;;6.13;;
12631;SDS011;6381;45.748;12.106;2022-12-07T02:33:40;7.53;;;6.83;;
12631;SDS011;6381;45.748;12.106;2022-12-07T02:36:14;6.97;;;6.27;;
12631;SDS011;6381;45.748;12.106;2022-12-07T02:38:49;7.20;;;6.60;;
12631;SDS011;6381;45.748;12.106;2022-12-07T02:41:24;7.23;;;6.30;;
12631;SDS011;6381;45.748;12.106;2022-12-07T02:43:56;6.33;;;5.73;;
12631;SDS011;6381;45.748;12.106;2022-12-07T02:46:31;7.23;;;6.53;;
12631;SDS011;6381;45.748;12.106;2022-12-07T02:49:04;6.30;;;5.70;;
12631;SDS011;6381;45.748;12.106;2022-12-07T02:51:38;6.03;;;5.53;;
12631;SDS011;6381;45.748;12.106;2022-12-07T02:54:09;6.50;;;5.90;;
12631;SDS011;6381;45.748;12.106;2022-12-07T02:56:43;6.77;;;6.00;;
12631;SDS011;6381;45.748;12.106;2022-12-07T02:59:21;6.63;;;6.03;;
12631;SDS011;6381;45.748;12.106;2022-12-07T03:02:02;6.50;;;5.90;;
12631;SDS011;6381;45.748;12.106;2022-12-07T03:04:41;6.63;;;5.90;;
12631;SDS011;6381;45.748;12.106;2022-12-07T03:07:18;6.53;;;5.93;;
12631;SDS011;6381;45.748;12.106;2022-12-07T03:09:58;7.00;;;6.40;;
12631;SDS011;6381;45.748;12.106;2022-12-07T03:12:32;7.03;;;6.43;;
12631;SDS011;6381;45.748;12.106;2022-12-07T03:15:07;7.10;;;6.50;;
12631;SDS011;6381;45.748;12.106;2022-12-07T03:17:42;7.07;;;6.47;;
12631;SDS011;6381;45.748;12.106;2022-12-07T03:20:15;7.73;;;6.43;;
12631;SDS011;6381;45.748;12.106;2022-12-07T03:22:49;6.80;;;6.20;;
12631;SDS011;6381;45.748;12.106;2022-12-07T03:25:20;6.87;;;6.30;;
12631;SDS011;6381;45.748;12.106;2022-12-07T03:27:51;7.60;;;6.90;;
12631;SDS011;6381;45.748;12.106;2022-12-07T03:30:24;7.70;;;7.00;;
12631;SDS011;6381;45.748;12.106;2022-12-07T03:33:00;7.73;;;6.53;;
12631;SDS011;6381;45.748;12.106;2022-12-07T03:35:34;7.87;;;7.17;;
12631;SDS011;6381;45.748;12.106;2022-12-07T03:38:10;7.63;;;6.93;;
12631;SDS011;6381;45.748;12.106;2022-12-07T03:40:44;7.40;;;6.70;;
12631;SDS011;6381;45.748;12.106;2022-12-07T03:43:18;8.10;;;7.30;;
12631;SDS011;6381;45.748;12.106;2022-12-07T03:45:51;7.73;;;7.03;;
12631;SDS011;6381;45.748;12.106;2022-12-07T03:48:28;7.83;;;7.00;;
12631;SDS011;6381;45.748;12.106;2022-12-07T03:51:06;8.17;;;7.47;;
12631;SDS011;6381;45.748;12.106;2022-12-07T03:53:43;7.70;;;6.87;;
12631;SDS011;6381;45.748;12.106;2022-12-07T03:56:16;8.40;;;7.50;;
12631;SDS011;6381;45.748;12.106;2022-12-07T03:58:46;8.40;;;7.50;;
12631;SDS011;6381;45.748;12.106;2022-12-07T04:01:17;7.10;;;6.50;;
12631;SDS011;6381;45.748;12.106;2022-12-07T04:03:48;6.67;;;5.97;;
12631;SDS011;6381;45.748;12.106;2022-12-07T04:06:17;7.60;;;6.90;;
12631;SDS011;6381;45.748;12.106;2022-12-07T04:08:46;7.73;;;6.90;;
12631;SDS011;6381;45.748;12.106;2022-12-07T04:11:15;7.33;;;6.63;;
12631;SDS011;6381;45.748;12.106;2022-12-07T04:13:44;7.20;;;6.60;;
12631;SDS011;6381;45.748;12.106;2022-12-07T04:16:31;7.47;;;6.77;;
12631;SDS011;6381;45.748;12.106;2022-12-07T04:19:08;7.57;;;6.87;;
12631;SDS011;6381;45.748;12.106;2022-12-07T04:21:37;7.90;;;7.20;;
12631;SDS011;6381;45.748;12.106;2022-12-07T04:24:06;7.60;;;6.87;;
12631;SDS011;6381;45.748;12.106;2022-12-07T04:26:35;7.97;;;6.83;;
12631;SDS011;6381;45.748;12.106;2022-12-07T04:29:04;7.67;;;6.97;;
12631;SDS011;6381;45.748;12.106;2022-12-07T04:31:34;7.37;;;6.67;;
12631;SDS011;6381;45.748;12.106;2022-12-07T04:34:04;7.00;;;6.40;;
12631;SDS011;6381;45.748;12.106;2022-12-07T04:36:35;7.03;;;6.33;;
12631;SDS011;6381;45.748;12.106;2022-12-07T04:39:04;6.90;;;6.30;;
12631;SDS011;6381;45.748;12.106;2022-12-07T04:41:35;8.57;;;7.60;;
12631;SDS011;6381;45.748;12.106;2022-12-07T04:44:04;7.63;;;6.83;;
12631;SDS011;6381;45.748;12.106;2022-12-07T04:46:34;6.90;;;6.30;;
12631;SDS011;6381;45.748;12.106;2022-12-07T04:49:03;7.60;;;6.90;;
12631;SDS011;6381;45.748;12.106;2022-12-07T04:51:32;8.27;;;7.47;;
12631;SDS011;6381;45.748;12.106;2022-12-07T04:54:03;9.17;;;8.27;;
12631;SDS011;6381;45.748;12.106;2022-12-07T04:56:33;9.10;;;7.73;;
12631;SDS011;6381;45.748;12.106;2022-12-07T04:59:02;7.53;;;6.93;;
12631;SDS011;6381;45.748;12.106;2022-12-07T05:01:32;8.17;;;7.23;;
12631;SDS011;6381;45.748;12.106;2022-12-07T05:04:01;6.97;;;6.37;;
12631;SDS011;6381;45.748;12.106;2022-12-07T05:06:31;6.93;;;6.33;;
12631;SDS011;6381;45.748;12.106;2022-12-07T05:09:02;7.00;;;6.40;;
12631;SDS011;6381;45.748;12.106;2022-12-07T05:11:31;6.70;;;6.10;;
12631;SDS011;6381;45.748;12.106;2022-12-07T05:14:07;5.90;;;5.40;;
12631;SDS011;6381;45.748;12.106;2022-12-07T05:16:39;6.97;;;6.27;;
12631;SDS011;6381;45.748;12.106;2022-12-07T05:19:09;6.57;;;5.90;;
12631;SDS011;6381;45.748;12.106;2022-12-07T05:21:39;7.13;;;6.47;;
12631;SDS011;6381;45.748;12.106;2022-12-07T05:24:11;7.63;;;6.67;;
12631;SDS011;6381;45.748;12.106;2022-12-07T05:26:41;7.03;;;6.33;;
12631;SDS011;6381;45.748;12.106;2022-12-07T05:29:11;6.20;;;5.60;;
12631;SDS011;6381;45.748;12.106;2022-12-07T05:31:40;6.50;;;5.90;;
12631;SDS011;6381;45.748;12.106;2022-12-07T05:34:10;6.60;;;5.90;;
12631;SDS011;6381;45.748;12.106;2022-12-07T05:36:40;6.10;;;5.50;;
12631;SDS011;6381;45.748;12.106;2022-12-07T05:39:10;6.40;;;5.80;;
12631;SDS011;6381;45.748;12.106;2022-12-07T05:41:39;8.33;;;6.13;;
12631;SDS011;6381;45.748;12.106;2022-12-07T05:44:26;5.90;;;5.30;;
12631;SDS011;6381;45.748;12.106;2022-12-07T05:46:55;6.23;;;5.63;;
12631;SDS011;6381;45.748;12.106;2022-12-07T05:49:24;6.10;;;5.50;;
12631;SDS011;6381;45.748;12.106;2022-12-07T05:51:53;7.20;;;5.80;;
12631;SDS011;6381;45.748;12.106;2022-12-07T05:54:24;8.20;;;5.40;;
12631;SDS011;6381;45.748;12.106;2022-12-07T05:56:53;5.77;;;5.27;;
12631;SDS011;6381;45.748;12.106;2022-12-07T05:59:22;8.13;;;5.63;;
12631;SDS011;6381;45.748;12.106;2022-12-07T06:01:51;5.47;;;4.97;;
12631;SDS011;6381;45.748;12.106;2022-12-07T06:04:22;5.50;;;5.00;;
12631;SDS011;6381;45.748;12.106;2022-12-07T06:06:52;6.03;;;5.40;;
12631;SDS011;6381;45.748;12.106;2022-12-07T06:09:24;6.10;;;5.50;;
12631;SDS011;6381;45.748;12.106;2022-12-07T06:11:54;6.30;;;5.67;;
12631;SDS011;6381;45.748;12.106;2022-12-07T06:14:41;5.87;;;5.37;;
12631;SDS011;6381;45.748;12.106;2022-12-07T06:17:11;6.60;;;5.90;;
12631;SDS011;6381;45.748;12.106;2022-12-07T06:19:40;6.20;;;5.60;;
12631;SDS011;6381;45.748;12.106;2022-12-07T06:22:10;6.23;;;5.63;;
12631;SDS011;6381;45.748;12.106;2022-12-07T06:24:41;7.37;;;6.67;;
12631;SDS011;6381;45.748;12.106;2022-12-07T06:27:10;7.23;;;6.60;;
12631;SDS011;6381;45.748;12.106;2022-12-07T06:29:39;6.63;;;6.03;;
12631;SDS011;6381;45.748;12.106;2022-12-07T06:32:08;6.17;;;5.57;;
12631;SDS011;6381;45.748;12.106;2022-12-07T06:34:38;7.13;;;6.43;;
12631;SDS011;6381;45.748;12.106;2022-12-07T06:37:07;5.77;;;5.27;;
12631;SDS011;6381;45.748;12.106;2022-12-07T06:39:37;6.67;;;6.07;;
12631;SDS011;6381;45.748;12.106;2022-12-07T06:42:07;6.37;;;5.77;;
12631;SDS011;6381;45.748;12.106;2022-12-07T06:44:37;8.23;;;5.83;;
12631;SDS011;6381;45.748;12.106;2022-12-07T06:47:05;7.73;;;6.10;;
12631;SDS011;6381;45.748;12.106;2022-12-07T06:49:56;7.63;;;6.43;;
12631;SDS011;6381;45.748;12.106;2022-12-07T06:52:25;13.23;;;6.80;;
12631;SDS011;6381;45.748;12.106;2022-12-07T06:54:54;8.33;;;7.53;;
12631;SDS011;6381;45.748;12.106;2022-12-07T06:57:25;7.17;;;6.47;;
12631;SDS011;6381;45.748;12.106;2022-12-07T06:59:54;10.57;;;6.87;;
12631;SDS011;6381;45.748;12.106;2022-12-07T07:02:23;8.77;;;6.40;;
12631;SDS011;6381;45.748;12.106;2022-12-07T07:04:52;7.23;;;6.57;;
12631;SDS011;6381;45.748;12.106;2022-12-07T07:07:21;9.43;;;6.37;;
12631;SDS011;6381;45.748;12.106;2022-12-07T07:09:50;9.70;;;7.20;;
12631;SDS011;6381;45.748;12.106;2022-12-07T07:12:19;7.30;;;6.57;;
12631;SDS011;6381;45.748;12.106;2022-12-07T07:14:50;9.03;;;6.23;;
12631;SDS011;6381;45.748;12.106;2022-12-07T07:17:20;7.20;;;6.57;;
12631;SDS011;6381;45.748;12.106;2022-12-07T07:19:49;7.50;;;6.80;;
12631;SDS011;6381;45.748;12.106;2022-12-07T07:22:18;8.60;;;6.97;;
12631;SDS011;6381;45.748;12.106;2022-12-07T07:24:47;9.73;;;7.13;;
12631;SDS011;6381;45.748;12.106;2022-12-07T07:27:17;7.97;;;6.70;;
12631;SDS011;6381;45.748;12.106;2022-12-07T07:29:46;8.93;;;6.90;;
12631;SDS011;6381;45.748;12.106;2022-12-07T07:32:16;9.77;;;6.90;;
12631;SDS011;6381;45.748;12.106;2022-12-07T07:34:46;7.10;;;6.40;;
12631;SDS011;6381;45.748;12.106;2022-12-07T07:37:15;9.77;;;7.20;;
12631;SDS011;6381;45.748;12.106;2022-12-07T07:39:47;9.90;;;7.20;;
12631;SDS011;6381;45.748;12.106;2022-12-07T07:42:17;7.83;;;7.03;;
12631;SDS011;6381;45.748;12.106;2022-12-07T07:44:49;8.23;;;6.47;;
12631;SDS011;6381;45.748;12.106;2022-12-07T07:47:23;7.73;;;6.93;;
12631;SDS011;6381;45.748;12.106;2022-12-07T07:49:57;7.87;;;7.10;;
12631;SDS011;6381;45.748;12.106;2022-12-07T07:52:31;8.93;;;7.97;;
12631;SDS011;6381;45.748;12.106;2022-12-07T07:55:01;9.77;;;8.33;;
12631;SDS011;6381;45.748;12.106;2022-12-07T07:57:33;11.17;;;7.00;;
12631;SDS011;6381;45.748;12.106;2022-12-07T08:00:06;7.33;;;6.47;;
12631;SDS011;6381;45.748;12.106;2022-12-07T08:02:42;6.90;;;6.30;;
12631;SDS011;6381;45.748;12.106;2022-12-07T08:08:28;8.47;;;6.80;;
12631;SDS011;6381;45.748;12.106;2022-12-07T08:10:57;9.40;;;6.23;;
12631;SDS011;6381;45.748;12.106;2022-12-07T08:13:28;7.37;;;6.57;;
12631;SDS011;6381;45.748;12.106;2022-12-07T08:15:58;7.37;;;6.47;;
12631;SDS011;6381;45.748;12.106;2022-12-07T08:18:32;8.93;;;6.80;;
12631;SDS011;6381;45.748;12.106;2022-12-07T08:21:04;6.77;;;6.17;;
12631;SDS011;6381;45.748;12.106;2022-12-07T08:23:34;7.73;;;6.20;;
12631;SDS011;6381;45.748;12.106;2022-12-07T08:26:06;7.37;;;6.20;;
12631;SDS011;6381;45.748;12.106;2022-12-07T08:28:37;10.40;;;5.90;;
12631;SDS011;6381;45.748;12.106;2022-12-07T08:31:07;6.93;;;6.23;;
12631;SDS011;6381;45.748;12.106;2022-12-07T08:33:40;7.47;;;6.73;;
12631;SDS011;6381;45.748;12.106;2022-12-07T08:36:13;10.23;;;6.57;;
12631;SDS011;6381;45.748;12.106;2022-12-07T08:38:42;7.17;;;6.00;;
12631;SDS011;6381;45.748;12.106;2022-12-07T08:41:32;7.10;;;6.43;;
12631;SDS011;6381;45.748;12.106;2022-12-07T08:44:01;10.60;;;7.03;;
12631;SDS011;6381;45.748;12.106;2022-12-07T08:46:31;7.50;;;6.40;;
12631;SDS011;6381;45.748;12.106;2022-12-07T08:49:08;7.00;;;5.90;;
12631;SDS011;6381;45.748;12.106;2022-12-07T08:51:40;8.60;;;6.27;;
12631;SDS011;6381;45.748;12.106;2022-12-07T08:54:11;5.90;;;5.40;;
12631;SDS011;6381;45.748;12.106;2022-12-07T08:56:42;6.07;;;5.43;;
12631;SDS011;6381;45.748;12.106;2022-12-07T08:59:12;5.90;;;5.40;;
12631;SDS011;6381;45.748;12.106;2022-12-07T09:01:44;6.63;;;5.70;;
12631;SDS011;6381;45.748;12.106;2022-12-07T09:04:15;7.50;;;5.63;;
12631;SDS011;6381;45.748;12.106;2022-12-07T09:06:44;7.67;;;6.10;;
12631;SDS011;6381;45.748;12.106;2022-12-07T09:09:13;5.93;;;5.20;;
12631;SDS011;6381;45.748;12.106;2022-12-07T09:11:43;7.03;;;5.20;;
12631;SDS011;6381;45.748;12.106;2022-12-07T09:14:13;6.57;;;5.87;;
12631;SDS011;6381;45.748;12.106;2022-12-07T09:16:42;9.83;;;6.50;;
12631;SDS011;6381;45.748;12.106;2022-12-07T09:19:11;7.33;;;6.20;;
12631;SDS011;6381;45.748;12.106;2022-12-07T09:21:42;8.20;;;5.80;;
12631;SDS011;6381;45.748;12.106;2022-12-07T09:24:11;5.30;;;4.80;;
12631;SDS011;6381;45.748;12.106;2022-12-07T09:26:40;5.67;;;4.70;;
12631;SDS011;6381;45.748;12.106;2022-12-07T09:29:11;5.50;;;4.60;;
12631;SDS011;6381;45.748;12.106;2022-12-07T09:31:40;5.63;;;4.53;;
12631;SDS011;6381;45.748;12.106;2022-12-07T09:34:09;5.40;;;4.80;;
12631;SDS011;6381;45.748;12.106;2022-12-07T09:36:38;7.23;;;4.83;;
12631;SDS011;6381;45.748;12.106;2022-12-07T09:39:10;5.20;;;4.40;;
12631;SDS011;6381;45.748;12.106;2022-12-07T09:41:40;5.17;;;4.67;;
12631;SDS011;6381;45.748;12.106;2022-12-07T09:44:13;5.23;;;4.40;;
12631;SDS011;6381;45.748;12.106;2022-12-07T09:46:45;6.13;;;4.80;;
12631;SDS011;6381;45.748;12.106;2022-12-07T09:49:16;6.47;;;5.60;;
12631;SDS011;6381;45.748;12.106;2022-12-07T09:51:47;4.93;;;4.30;;
12631;SDS011;6381;45.748;12.106;2022-12-07T09:54:29;4.37;;;3.97;;
12631;SDS011;6381;45.748;12.106;2022-12-07T09:56:59;4.50;;;4.10;;
12631;SDS011;6381;45.748;12.106;2022-12-07T09:59:28;3.80;;;3.50;;
12631;SDS011;6381;45.748;12.106;2022-12-07T10:02:17;5.30;;;3.60;;
12631;SDS011;6381;45.748;12.106;2022-12-07T10:04:53;4.00;;;3.57;;
12631;SDS011;6381;45.748;12.106;2022-12-07T10:07:23;4.20;;;3.80;;
12631;SDS011;6381;45.748;12.106;2022-12-07T10:09:54;5.67;;;3.60;;
12631;SDS011;6381;45.748;12.106;2022-12-07T10:12:23;4.10;;;3.50;;
12631;SDS011;6381;45.748;12.106;2022-12-07T10:14:53;3.37;;;3.07;;
12631;SDS011;6381;45.748;12.106;2022-12-07T10:17:35;3.50;;;3.20;;
12631;SDS011;6381;45.748;12.106;2022-12-07T10:20:13;4.10;;;3.50;;
12631;SDS011;6381;45.748;12.106;2022-12-07T10:22:55;3.23;;;2.70;;
12631;SDS011;6381;45.748;12.106;2022-12-07T10:25:28;4.13;;;2.73;;
12631;SDS011;6381;45.748;12.106;2022-12-07T10:28:00;3.37;;;3.03;;
12631;SDS011;6381;45.748;12.106;2022-12-07T10:30:52;2.73;;;2.30;;
12631;SDS011;6381;45.748;12.106;2022-12-07T10:33:30;3.43;;;3.13;;
12631;SDS011;6381;45.748;12.106;2022-12-07T10:36:15;4.13;;;3.73;;
12631;SDS011;6381;45.748;12.106;2022-12-07T10:38:46;3.93;;;3.53;;
12631;SDS011;6381;45.748;12.106;2022-12-07T10:41:18;4.10;;;3.67;;
12631;SDS011;6381;45.748;12.106;2022-12-07T10:43:51;4.03;;;3.60;;
12631;SDS011;6381;45.748;12.106;2022-12-07T10:46:26;3.90;;;3.50;;
12631;SDS011;6381;45.748;12.106;2022-12-07T10:49:11;5.20;;;3.87;;
12631;SDS011;6381;45.748;12.106;2022-12-07T10:51:59;4.77;;;3.37;;
12631;SDS011;6381;45.748;12.106;2022-12-07T10:54:38;3.13;;;2.83;;
12631;SDS011;6381;45.748;12.106;2022-12-07T10:57:22;3.00;;;2.50;;
12631;SDS011;6381;45.748;12.106;2022-12-07T11:00:06;5.03;;;3.30;;
12631;SDS011;6381;45.748;12.106;2022-12-07T11:02:57;4.60;;;3.20;;
12631;SDS011;6381;45.748;12.106;2022-12-07T11:05:35;5.47;;;4.90;;
12631;SDS011;6381;45.748;12.106;2022-12-07T11:08:15;3.17;;;2.87;;
12631;SDS011;6381;45.748;12.106;2022-12-07T11:10:55;3.90;;;2.87;;
12631;SDS011;6381;45.748;12.106;2022-12-07T11:13:34;4.23;;;2.97;;
12631;SDS011;6381;45.748;12.106;2022-12-07T11:16:19;6.73;;;5.00;;
12631;SDS011;6381;45.748;12.106;2022-12-07T11:19:09;3.17;;;2.87;;
12631;SDS011;6381;45.748;12.106;2022-12-07T11:21:56;2.80;;;2.57;;
12631;SDS011;6381;45.748;12.106;2022-12-07T11:24:32;3.10;;;2.80;;
12631;SDS011;6381;45.748;12.106;2022-12-07T11:27:14;3.13;;;2.70;;
12631;SDS011;6381;45.748;12.106;2022-12-07T11:29:59;3.73;;;3.20;;
12631;SDS011;6381;45.748;12.106;2022-12-07T11:32:43;3.23;;;2.93;;
12631;SDS011;6381;45.748;12.106;2022-12-07T11:35:32;3.40;;;3.10;;
12631;SDS011;6381;45.748;12.106;2022-12-07T11:38:14;3.07;;;2.77;;
12631;SDS011;6381;45.748;12.106;2022-12-07T11:40:53;4.20;;;3.10;;
12631;SDS011;6381;45.748;12.106;2022-12-07T11:43:50;3.43;;;2.93;;
12631;SDS011;6381;45.748;12.106;2022-12-07T11:46:25;3.70;;;3.40;;
12631;SDS011;6381;45.748;12.106;2022-12-07T11:48:58;5.07;;;3.20;;
12631;SDS011;6381;45.748;12.106;2022-12-07T11:51:33;3.40;;;3.10;;
12631;SDS011;6381;45.748;12.106;2022-12-07T11:54:10;3.10;;;2.80;;
12631;SDS011;6381;45.748;12.106;2022-12-07T11:56:43;3.40;;;2.87;;
12631;SDS011;6381;45.748;12.106;2022-12-07T11:59:17;3.30;;;2.83;;
12631;SDS011;6381;45.748;12.106;2022-12-07T12:01:55;4.30;;;3.13;;
12631;SDS011;6381;45.748;12.106;2022-12-07T12:04:30;3.83;;;2.65;;
12631;SDS011;6381;45.748;12.106;2022-12-07T12:07:10;3.92;;;2.92;;
12631;SDS011;6381;45.748;12.106;2022-12-07T12:10:04;2.72;;;2.53;;
12631;SDS011;6381;45.748;12.106;2022-12-07T12:12:50;2.80;;;2.47;;
12631;SDS011;6381;45.748;12.106;2022-12-07T12:19:04;3.20;;;2.83;;
12631;SDS011;6381;45.748;12.106;2022-12-07T12:21:46;3.30;;;3.00;;
12631;SDS011;6381;45.748;12.106;2022-12-07T12:24:24;3.17;;;2.88;;
12631;SDS011;6381;45.748;12.106;2022-12-07T12:26:57;3.97;;;3.50;;
12631;SDS011;6381;45.748;12.106;2022-12-07T12:29:32;9.93;;;3.30;;
12631;SDS011;6381;45.748;12.106;2022-12-07T12:32:07;5.60;;;3.88;;
12631;SDS011;6381;45.748;12.106;2022-12-07T12:35:01;7.70;;;4.10;;
12631;SDS011;6381;45.748;12.106;2022-12-07T12:37:49;4.45;;;3.67;;
12631;SDS011;6381;45.748;12.106;2022-12-07T12:40:39;6.07;;;3.85;;
12631;SDS011;6381;45.748;12.106;2022-12-07T12:58:40;7.15;;;4.30;;
12631;SDS011;6381;45.748;12.106;2022-12-07T13:10:38;4.53;;;3.80;;
12631;SDS011;6381;45.748;12.106;2022-12-07T13:22:38;3.35;;;3.05;;
12631;SDS011;6381;45.748;12.106;2022-12-07T13:25:29;3.58;;;3.28;;
12631;SDS011;6381;45.748;12.106;2022-12-07T13:28:16;4.43;;;3.33;;
12631;SDS011;6381;45.748;12.106;2022-12-07T13:30:53;3.53;;;3.22;;
12631;SDS011;6381;45.748;12.106;2022-12-07T13:33:42;8.25;;;4.90;;
12631;SDS011;6381;45.748;12.106;2022-12-07T13:36:18;6.93;;;6.22;;
12631;SDS011;6381;45.748;12.106;2022-12-07T13:38:53;4.13;;;3.42;;
12631;SDS011;6381;45.748;12.106;2022-12-07T13:41:26;3.78;;;3.47;;
12631;SDS011;6381;45.748;12.106;2022-12-07T13:44:00;5.28;;;3.75;;
12631;SDS011;6381;45.748;12.106;2022-12-07T13:46:43;4.88;;;3.50;;
12631;SDS011;6381;45.748;12.106;2022-12-07T13:49:21;3.90;;;3.55;;
12631;SDS011;6381;45.748;12.106;2022-12-07T13:51:56;4.22;;;3.47;;
12631;SDS011;6381;45.748;12.106;2022-12-07T13:54:46;5.93;;;3.78;;
12631;SDS011;6381;45.748;12.106;2022-12-07T13:57:19;5.60;;;3.67;;
12631;SDS011;6381;45.748;12.106;2022-12-07T13:59:50;3.72;;;3.42;;
12631;SDS011;6381;45.748;12.106;2022-12-07T14:02:24;3.88;;;3.40;;
12631;SDS011;6381;45.748;12.106;2022-12-07T14:05:09;4.05;;;3.65;;
12631;SDS011;6381;45.748;12.106;2022-12-07T14:07:48;4.05;;;3.65;;
12631;SDS011;6381;45.748;12.106;2022-12-07T14:10:27;4.57;;;3.92;;
12631;SDS011;6381;45.748;12.106;2022-12-07T14:13:00;4.32;;;3.88;;
12631;SDS011;6381;45.748;12.106;2022-12-07T14:15:34;5.07;;;4.20;;
12631;SDS011;6381;45.748;12.106;2022-12-07T14:21:13;5.15;;;4.22;;
12631;SDS011;6381;45.748;12.106;2022-12-07T14:23:46;6.95;;;4.90;;
12631;SDS011;6381;45.748;12.106;2022-12-07T14:26:42;5.18;;;4.50;;
12631;SDS011;6381;45.748;12.106;2022-12-07T14:29:20;5.93;;;4.68;;
12631;SDS011;6381;45.748;12.106;2022-12-07T14:35:00;4.93;;;4.40;;
12631;SDS011;6381;45.748;12.106;2022-12-07T14:37:36;4.72;;;4.00;;
12631;SDS011;6381;45.748;12.106;2022-12-07T14:40:09;9.52;;;4.60;;
12631;SDS011;6381;45.748;12.106;2022-12-07T14:42:42;8.50;;;4.53;;
12631;SDS011;6381;45.748;12.106;2022-12-07T14:45:14;4.97;;;4.10;;
12631;SDS011;6381;45.748;12.106;2022-12-07T14:47:44;6.20;;;4.00;;
12631;SDS011;6381;45.748;12.106;2022-12-07T14:50:35;5.20;;;4.20;;
12631;SDS011;6381;45.748;12.106;2022-12-07T14:53:27;5.30;;;4.80;;
12631;SDS011;6381;45.748;12.106;2022-12-07T14:56:00;7.25;;;5.95;;
12631;SDS011;6381;45.748;12.106;2022-12-07T14:58:29;10.90;;;7.57;;
12631;SDS011;6381;45.748;12.106;2022-12-07T15:00:58;8.13;;;7.05;;
12631;SDS011;6381;45.748;12.106;2022-12-07T15:03:27;8.53;;;7.50;;
12631;SDS011;6381;45.748;12.106;2022-12-07T15:05:57;9.00;;;7.20;;
12631;SDS011;6381;45.748;12.106;2022-12-07T15:08:29;9.20;;;6.60;;
12631;SDS011;6381;45.748;12.106;2022-12-07T15:10:58;9.50;;;6.80;;
12631;SDS011;6381;45.748;12.106;2022-12-07T15:13:27;9.60;;;6.63;;
12631;SDS011;6381;45.748;12.106;2022-12-07T15:16:16;7.63;;;6.70;;
12631;SDS011;6381;45.748;12.106;2022-12-07T15:18:48;9.57;;;6.73;;
12631;SDS011;6381;45.748;12.106;2022-12-07T15:21:37;10.63;;;7.53;;
12631;SDS011;6381;45.748;12.106;2022-12-07T15:24:09;10.50;;;6.67;;
12631;SDS011;6381;45.748;12.106;2022-12-07T15:26:39;10.67;;;7.53;;
12631;SDS011;6381;45.748;12.106;2022-12-07T15:29:09;12.73;;;7.47;;
12631;SDS011;6381;45.748;12.106;2022-12-07T15:31:45;12.40;;;7.63;;
12631;SDS011;6381;45.748;12.106;2022-12-07T15:34:24;11.47;;;6.87;;
12631;SDS011;6381;45.748;12.106;2022-12-07T15:37:05;10.60;;;7.40;;
12631;SDS011;6381;45.748;12.106;2022-12-07T15:39:37;13.27;;;7.53;;
12631;SDS011;6381;45.748;12.106;2022-12-07T15:42:06;11.17;;;7.10;;
12631;SDS011;6381;45.748;12.106;2022-12-07T15:44:35;13.00;;;7.80;;
12631;SDS011;6381;45.748;12.106;2022-12-07T15:47:22;25.03;;;11.80;;
12631;SDS011;6381;45.748;12.106;2022-12-07T15:49:51;22.13;;;12.97;;
12631;SDS011;6381;45.748;12.106;2022-12-07T15:52:22;17.77;;;13.67;;
12631;SDS011;6381;45.748;12.106;2022-12-07T15:54:53;26.40;;;15.90;;
12631;SDS011;6381;45.748;12.106;2022-12-07T15:57:23;19.03;;;14.27;;
12631;SDS011;6381;45.748;12.106;2022-12-07T15:59:52;25.47;;;18.70;;
12631;SDS011;6381;45.748;12.106;2022-12-07T16:02:21;42.47;;;32.43;;
12631;SDS011;6381;45.748;12.106;2022-12-07T16:04:51;29.50;;;20.60;;
12631;SDS011;6381;45.748;12.106;2022-12-07T16:07:20;24.13;;;16.63;;
12631;SDS011;6381;45.748;12.106;2022-12-07T16:09:49;24.07;;;15.10;;
12631;SDS011;6381;45.748;12.106;2022-12-07T16:12:20;17.23;;;15.17;;